Time;durP1;ratioP1;P1;durP2;ratioP2;P2;SDS_P1;SDS_P2;PMS_P1;PMS_P2;Temp;Humidity;BMP_temperature;BMP_pressure;BME280_temperature;BME280_humidity;BME280_pressure;Samples;Min_cycle;Max_cycle;Signal;HPM_P1;HPM_P2
2021/10/17 06:33:33;;;;;;;0.70;0.70;;;;;;;6.69;75.88;99347.31;5051189;28;20377;-75
2021/10/17 06:36:00;;;;;;;0.63;0.63;;;;;;;6.50;76.40;99345.41;5023225;28;20091;-72
2021/10/17 06:38:26;;;;;;;0.52;0.52;;;;;;;6.37;77.08;99351.00;5033609;28;20052;-71
2021/10/17 06:40:53;;;;;;;0.50;0.50;;;;;;;6.09;78.30;99343.59;5020682;28;20532;-71
2021/10/17 06:43:19;;;;;;;0.60;0.60;;;;;;;6.43;77.39;99344.22;5055755;28;20053;-69
2021/10/17 07:26:31;;;;;;;1.15;1.15;;;;;;;8.47;68.78;99363.47;5053175;28;20143;-70
2021/10/17 07:28:57;;;;;;;0.50;0.50;;;;;;;7.90;70.42;99361.53;5027078;28;20472;-69
2021/10/17 07:31:24;;;;;;;0.98;0.98;;;;;;;8.30;71.01;99362.34;5035674;28;20128;-71
2021/10/17 07:33:58;;;;;;;0.90;0.90;;;;;;;8.73;67.78;99336.75;5030294;28;20048;-72
2021/10/17 07:39:23;;;;;;;1.50;1.50;;;;;;;7.86;71.60;99348.47;5043400;28;20056;-78
2021/10/17 07:41:52;;;;;;;1.08;1.08;;;;;;;8.80;68.12;99354.88;5029933;28;20053;-75
2021/10/17 07:44:18;;;;;;;0.60;0.60;;;;;;;8.87;68.55;99361.38;5012695;28;20069;-73
2021/10/17 07:46:58;;;;;;;1.90;1.90;;;;;;;10.99;61.98;99350.91;5050545;28;20068;-72
2021/10/17 07:49:28;;;;;;;0.80;0.80;;;;;;;9.74;64.21;99365.47;5016767;28;20076;-72
2021/10/17 07:51:57;;;;;;;0.50;0.50;;;;;;;8.59;68.30;99370.38;5032895;28;20136;-70
2021/10/17 07:54:24;;;;;;;0.77;0.77;;;;;;;8.53;68.69;99374.53;5032893;28;20150;-71
2021/10/17 07:56:50;;;;;;;0.50;0.50;;;;;;;7.81;71.96;99361.50;5068943;28;20035;-75
2021/10/17 07:59:17;;;;;;;0.80;0.80;;;;;;;8.37;70.53;99361.66;5028149;28;20041;-72
2021/10/17 08:01:45;;;;;;;0.90;0.90;;;;;;;8.66;68.60;99363.41;5007453;28;20048;-74
2021/10/17 08:04:11;;;;;;;0.80;0.80;;;;;;;8.94;68.37;99357.09;5033603;28;20053;-75
2021/10/17 08:06:55;;;;;;;0.50;0.50;;;;;;;10.10;64.97;99371.72;5030471;28;20509;-76
2021/10/17 08:09:21;;;;;;;0.60;0.60;;;;;;;10.01;64.10;99371.78;5041361;28;20046;-76
2021/10/17 08:11:47;;;;;;;0.80;0.80;;;;;;;10.58;62.39;99377.72;5049498;28;20080;-75
2021/10/17 08:14:13;;;;;;;0.60;0.60;;;;;;;9.48;64.62;99375.28;5033727;28;20094;-76
2021/10/17 08:16:44;;;;;;;0.50;0.50;;;;;;;8.85;67.94;99384.94;5031857;28;20056;-77
2021/10/17 08:19:10;;;;;;;1.08;1.08;;;;;;;9.53;66.58;99372.97;5025523;28;20084;-73
2021/10/17 08:21:36;;;;;;;1.13;1.13;;;;;;;9.60;65.02;99376.78;5033117;28;20071;-71
2021/10/17 08:24:09;;;;;;;1.43;1.43;;;;;;;11.08;62.00;99379.72;4993749;28;20057;-74
2021/10/17 08:26:43;;;;;;;1.30;1.30;;;;;;;12.52;56.50;99377.69;5028645;28;20528;-74
2021/10/17 08:29:14;;;;;;;0.50;0.50;;;;;;;12.13;56.15;99372.94;5030584;28;20136;-74
2021/10/17 08:31:40;;;;;;;0.50;0.50;;;;;;;11.73;57.37;99377.22;5032527;28;20477;-74
2021/10/17 08:34:10;;;;;;;0.60;0.60;;;;;;;11.78;57.47;99385.72;5022457;28;20164;-75
2021/10/17 08:36:38;;;;;;;0.50;0.50;;;;;;;10.65;60.55;99378.78;5030104;28;20041;-74
2021/10/17 08:39:06;;;;;;;0.50;0.50;;;;;;;10.69;60.08;99377.44;5011067;28;20045;-75
2021/10/17 08:41:45;;;;;;;0.40;0.40;;;;;;;10.76;60.90;99383.91;5040708;28;20093;-74
2021/10/17 08:44:13;;;;;;;0.40;0.40;;;;;;;9.83;62.72;99380.72;5018366;28;20406;-74
2021/10/17 08:46:51;;;;;;;0.40;0.40;;;;;;;9.12;65.79;99369.78;5031002;28;20044;-74
2021/10/17 08:49:20;;;;;;;0.50;0.50;;;;;;;9.12;66.19;99384.13;5031165;28;20095;-77
2021/10/17 08:51:46;;;;;;;0.40;0.40;;;;;;;9.45;65.19;99381.00;5029743;28;20543;-74
2021/10/17 08:54:13;;;;;;;0.50;0.50;;;;;;;9.42;65.31;99382.97;5012681;28;20053;-74
2021/10/17 08:57:02;;;;;;;0.45;0.45;;;;;;;8.89;66.89;99380.97;5030997;28;20408;-73
2021/10/17 08:59:30;;;;;;;0.40;0.40;;;;;;;8.28;69.14;99381.34;5041616;28;20049;-74
2021/10/17 09:01:56;;;;;;;0.40;0.40;;;;;;;8.73;67.99;99380.72;5017002;28;20041;-74
2021/10/17 09:04:29;;;;;;;0.60;0.60;;;;;;;8.76;68.26;99382.28;5030453;28;20212;-74
2021/10/17 09:07:18;;;;;;;0.40;0.40;;;;;;;8.54;68.75;99380.75;5030689;28;20542;-75
2021/10/17 09:10:19;;;;;;;0.40;0.40;;;;;;;8.66;68.71;99395.75;5017135;28;20069;-76
2021/10/17 09:12:47;;;;;;;0.40;0.40;;;;;;;8.49;68.91;99399.22;5021376;28;20130;-73
2021/10/17 09:15:23;;;;;;;0.40;0.40;;;;;;;8.64;68.51;99392.38;5026140;28;20151;-73
2021/10/17 09:18:01;;;;;;;0.40;0.40;;;;;;;8.23;69.87;99389.00;5062549;28;20122;-75
2021/10/17 09:20:27;;;;;;;0.30;0.30;;;;;;;8.28;69.59;99405.56;5024060;28;20177;-78
2021/10/17 09:22:53;;;;;;;0.40;0.40;;;;;;;7.54;71.53;99386.41;5013923;28;20529;-72
2021/10/17 09:25:30;;;;;;;0.30;0.30;;;;;;;7.43;72.67;99385.53;5040882;28;20053;-75
2021/10/17 09:27:56;;;;;;;0.30;0.30;;;;;;;7.37;72.81;99386.06;5035922;28;20053;-76
2021/10/17 09:30:21;;;;;;;0.30;0.30;;;;;;;7.11;73.83;99395.63;5051827;28;20549;-75
2021/10/17 09:32:48;;;;;;;0.40;0.40;;;;;;;7.30;73.49;99384.91;5005312;28;20336;-70
2021/10/17 09:35:14;;;;;;;0.40;0.40;;;;;;;7.61;72.84;99387.56;5036697;28;20453;-75
2021/10/17 09:38:00;;;;;;;0.40;0.40;;;;;;;7.81;72.15;99391.97;5026342;28;20485;-75
2021/10/17 09:40:45;;;;;;;0.40;0.40;;;;;;;7.61;71.77;99393.78;5022955;28;20144;-74
2021/10/17 09:43:35;;;;;;;0.50;0.50;;;;;;;7.31;72.75;99402.75;5025023;28;20855;-74
2021/10/17 09:46:28;;;;;;;0.40;0.40;;;;;;;7.21;73.54;99385.75;5019865;28;20139;-74
2021/10/17 09:48:54;;;;;;;0.40;0.40;;;;;;;7.46;72.70;99385.25;5007622;28;20053;-75
2021/10/17 09:51:26;;;;;;;0.40;0.40;;;;;;;7.57;72.21;99392.38;5057089;28;20143;-71
2021/10/17 09:54:01;;;;;;;0.40;0.40;;;;;;;7.33;72.85;99392.72;5024741;28;20365;-77
2021/10/17 09:56:45;;;;;;;0.50;0.50;;;;;;;7.43;72.04;99380.16;5044566;28;20574;-74
2021/10/17 09:59:12;;;;;;;0.40;0.40;;;;;;;7.08;73.41;99385.13;5041060;28;20131;-74
2021/10/17 10:01:41;;;;;;;0.40;0.40;;;;;;;7.03;73.58;99384.69;5038619;28;20057;-73
2021/10/17 10:04:08;;;;;;;0.40;0.40;;;;;;;7.05;74.32;99385.38;5055046;28;20060;-79
2021/10/17 10:06:35;;;;;;;0.40;0.40;;;;;;;6.96;74.24;99387.06;5023962;28;20056;-74
2021/10/17 10:09:03;;;;;;;0.40;0.40;;;;;;;7.07;73.58;99386.13;5056492;28;20045;-75
2021/10/17 10:11:30;;;;;;;0.43;0.43;;;;;;;7.29;72.94;99399.34;5054069;28;20468;-75
2021/10/17 10:13:58;;;;;;;0.40;0.40;;;;;;;7.27;72.71;99385.19;4991843;28;20521;-78
2021/10/17 10:16:26;;;;;;;0.40;0.40;;;;;;;7.49;71.96;99398.44;5036836;28;20052;-78
2021/10/17 10:19:01;;;;;;;0.40;0.40;;;;;;;7.19;72.56;99390.41;5030625;28;20041;-78
2021/10/17 10:21:28;;;;;;;0.40;0.40;;;;;;;6.98;73.32;99395.81;5025236;28;20067;-68
2021/10/17 10:23:56;;;;;;;0.60;0.60;;;;;;;7.39;72.92;99386.78;5021798;28;20136;-74
2021/10/17 10:26:23;;;;;;;0.40;0.40;;;;;;;7.09;73.70;99389.50;5055099;28;20058;-77
2021/10/17 10:28:51;;;;;;;0.40;0.40;;;;;;;7.12;73.17;99387.41;5029906;28;20110;-74
2021/10/17 10:31:43;;;;;;;0.50;0.50;;;;;;;7.71;71.45;99380.31;5015099;28;20111;-75
2021/10/17 10:34:30;;;;;;;0.40;0.40;;;;;;;7.76;70.84;99388.00;5050130;28;20049;-74
2021/10/17 10:36:56;;;;;;;0.55;0.55;;;;;;;7.77;71.18;99390.53;5032410;28;20052;-75
2021/10/17 10:39:22;;;;;;;0.40;0.40;;;;;;;7.34;71.98;99374.75;4998752;28;20041;-75
2021/10/17 10:42:01;;;;;;;0.40;0.40;;;;;;;7.22;72.77;99387.44;5065353;28;20049;-75
2021/10/17 10:44:29;;;;;;;0.50;0.50;;;;;;;7.15;73.14;99380.91;5031874;28;20084;-75
2021/10/17 10:46:57;;;;;;;0.40;0.40;;;;;;;7.30;73.03;99390.28;5048472;28;20595;-75
2021/10/17 10:49:58;;;;;;;0.50;0.50;;;;;;;7.82;70.62;99373.97;5050160;28;20056;-75
2021/10/17 10:52:24;;;;;;;0.40;0.40;;;;;;;7.52;71.50;99374.94;4963625;28;20055;-75
2021/10/17 10:54:58;;;;;;;0.50;0.50;;;;;;;7.91;70.28;99389.28;5019652;28;20408;-75
2021/10/17 10:57:26;;;;;;;0.50;0.50;;;;;;;7.78;70.25;99370.69;5049075;28;20496;-75
2021/10/17 11:00:01;;;;;;;0.40;0.40;;;;;;;7.97;69.64;99380.63;5032582;28;20053;-75
2021/10/17 11:02:28;;;;;;;0.40;0.40;;;;;;;7.38;71.84;99371.63;5032121;28;20492;-75
2021/10/17 11:04:54;;;;;;;0.40;0.40;;;;;;;7.27;72.11;99366.38;5070013;28;20148;-76
2021/10/17 11:07:23;;;;;;;0.50;0.50;;;;;;;7.27;72.33;99363.66;5056338;28;20135;-76
2021/10/17 11:09:52;;;;;;;0.50;0.50;;;;;;;7.52;72.21;99374.94;5052530;28;20113;-75
2021/10/17 11:12:43;;;;;;;0.45;0.45;;;;;;;7.59;71.11;99365.31;5056265;28;20079;-76
2021/10/17 11:15:11;;;;;;;0.50;0.50;;;;;;;7.96;70.05;99360.09;5039649;28;20110;-75
2021/10/17 11:17:37;;;;;;;0.40;0.40;;;;;;;8.27;69.05;99359.94;5072372;28;20051;-75
2021/10/17 11:20:04;;;;;;;0.40;0.40;;;;;;;7.88;69.65;99363.50;5055693;28;20057;-75
2021/10/17 11:22:36;;;;;;;0.40;0.40;;;;;;;7.66;70.44;99353.00;5038671;28;20091;-76
2021/10/17 11:25:03;;;;;;;0.50;0.50;;;;;;;7.96;69.54;99352.88;5055781;28;20067;-74
2021/10/17 11:27:29;;;;;;;0.50;0.50;;;;;;;8.04;68.87;99351.31;5055052;28;20084;-74
2021/10/17 11:29:55;;;;;;;0.50;0.50;;;;;;;8.29;68.32;99356.09;5055560;28;20084;-75
2021/10/17 11:32:21;;;;;;;0.50;0.50;;;;;;;8.70;67.56;99348.66;5072747;28;20049;-74
2021/10/17 11:35:00;;;;;;;0.40;0.40;;;;;;;8.61;67.28;99349.56;5057066;28;20059;-75
2021/10/17 11:37:28;;;;;;;0.40;0.40;;;;;;;8.34;68.24;99343.06;5039874;28;20055;-75
2021/10/17 11:40:00;;;;;;;0.60;0.60;;;;;;;8.84;66.94;99345.50;5056310;28;20084;-76
2021/10/17 11:42:28;;;;;;;0.50;0.50;;;;;;;8.75;66.55;99335.59;5053182;28;20071;-75
2021/10/17 11:44:55;;;;;;;0.60;0.60;;;;;;;8.77;66.42;99339.00;5073740;28;20056;-75
2021/10/17 11:47:22;;;;;;;0.40;0.40;;;;;;;9.02;65.66;99328.53;5029095;28;20063;-74
2021/10/17 11:49:48;;;;;;;0.40;0.40;;;;;;;9.03;65.40;99332.94;5055278;28;20049;-74
2021/10/17 11:52:14;;;;;;;0.40;0.40;;;;;;;8.62;66.60;99329.69;5038837;28;20052;-75
2021/10/17 11:54:45;;;;;;;0.40;0.40;;;;;;;8.29;67.54;99326.47;5055105;28;20048;-74
2021/10/17 11:57:31;;;;;;;0.40;0.40;;;;;;;8.27;67.85;99325.78;5054867;28;20074;-76
2021/10/17 12:00:03;;;;;;;0.40;0.40;;;;;;;8.16;68.30;99323.25;5056244;28;20084;-78
2021/10/17 12:02:39;;;;;;;0.40;0.40;;;;;;;8.05;69.05;99331.50;5055523;28;20052;-75
2021/10/17 12:05:16;;;;;;;0.50;0.50;;;;;;;8.46;67.32;99314.16;5049282;28;20182;-75
2021/10/17 12:07:43;;;;;;;0.40;0.40;;;;;;;8.22;68.09;99328.03;5072112;28;20492;-75
2021/10/17 12:10:10;;;;;;;0.40;0.40;;;;;;;8.07;68.29;99324.09;5050704;28;20048;-75
2021/10/17 12:12:38;;;;;;;0.40;0.40;;;;;;;8.08;68.19;99317.72;5035832;28;20061;-74
2021/10/17 12:15:10;;;;;;;0.40;0.40;;;;;;;8.13;68.54;99324.38;5040265;28;20144;-73
2021/10/17 12:17:36;;;;;;;0.40;0.40;;;;;;;8.21;68.68;99331.75;5062639;28;20136;-75
2021/10/17 12:20:14;;;;;;;0.40;0.40;;;;;;;8.01;69.68;99324.66;5011975;28;20147;-77
2021/10/17 12:22:48;;;;;;;0.40;0.40;;;;;;;7.69;70.75;99325.81;5041555;28;20089;-79
2021/10/17 12:25:33;;;;;;;0.40;0.40;;;;;;;7.68;70.77;99324.97;5046110;28;20053;-77
2021/10/17 12:28:00;;;;;;;0.30;0.30;;;;;;;7.58;70.81;99334.88;5032239;28;20078;-78
2021/10/17 12:30:33;;;;;;;0.40;0.40;;;;;;;7.50;71.06;99334.72;5063807;28;20120;-76
2021/10/17 12:33:01;;;;;;;0.37;0.37;;;;;;;7.53;71.25;99328.19;5053375;28;20051;-77
2021/10/17 12:35:39;;;;;;;0.40;0.40;;;;;;;7.58;71.11;99323.28;5076538;28;20440;-78
2021/10/17 12:38:13;;;;;;;0.40;0.40;;;;;;;7.41;71.58;99317.56;5048710;28;20064;-76
2021/10/17 12:40:56;;;;;;;0.40;0.40;;;;;;;7.38;71.93;99309.78;5063591;28;20056;-80
2021/10/17 12:43:29;;;;;;;0.40;0.40;;;;;;;7.54;71.50;99313.78;5031943;28;20053;-78
2021/10/17 12:45:56;;;;;;;0.40;0.40;;;;;;;7.60;71.39;99299.75;5048707;28;20080;-78
2021/10/17 12:48:46;;;;;;;0.40;0.40;;;;;;;7.49;71.25;99295.34;5066375;28;20072;-77
2021/10/17 12:51:47;;;;;;;0.40;0.40;;;;;;;7.63;71.29;99304.84;5059025;28;20045;-76
2021/10/17 12:54:12;;;;;;;0.40;0.40;;;;;;;7.62;71.03;99304.00;5041381;28;20052;-80
2021/10/17 12:57:07;;;;;;;0.40;0.40;;;;;;;7.74;70.59;99299.31;5063128;28;20056;-78
2021/10/17 12:59:36;;;;;;;0.40;0.40;;;;;;;7.58;71.57;99307.13;5058481;28;20048;-77
2021/10/17 13:02:13;;;;;;;0.40;0.40;;;;;;;7.52;71.49;99296.91;5051150;28;20106;-79
2021/10/17 13:04:41;;;;;;;0.40;0.40;;;;;;;7.46;71.63;99298.34;5066481;28;20385;-79
2021/10/17 13:07:08;;;;;;;0.40;0.40;;;;;;;7.63;71.31;99299.47;5051924;28;20055;-75
2021/10/17 13:09:48;;;;;;;0.40;0.40;;;;;;;7.57;71.65;99294.66;5113970;23;20673;-74
2021/10/17 13:12:19;;;;;;;0.40;0.40;;;;;;;7.45;71.85;99292.09;5062461;28;20064;-74
2021/10/17 13:14:55;;;;;;;0.40;0.40;;;;;;;7.54;72.04;99289.56;5042275;28;20049;-78
2021/10/17 13:17:20;;;;;;;0.40;0.40;;;;;;;7.68;71.70;99292.69;5054013;28;20250;-79
2021/10/17 13:19:46;;;;;;;0.50;0.50;;;;;;;8.15;69.55;99283.84;5007986;28;20084;-80
2021/10/17 13:22:12;;;;;;;0.50;0.50;;;;;;;8.61;68.30;99279.50;5029623;28;20064;-77
2021/10/17 13:24:38;;;;;;;0.50;0.50;;;;;;;8.59;68.26;99276.97;5049093;28;20052;-75
2021/10/17 13:27:04;;;;;;;0.40;0.40;;;;;;;8.28;69.09;99268.22;5062733;28;20051;-78
2021/10/17 13:29:31;;;;;;;0.30;0.30;;;;;;;8.01;69.94;99276.22;5027298;28;20412;-76
2021/10/17 13:42:10;;;;;;;0.40;0.40;;;;;;;7.41;72.73;99279.91;5881326;23;20045;31
2021/10/17 13:53:54;;;;;;;0.30;0.30;;;;;;;7.42;72.95;99265.50;5882774;23;20815;-70
2021/10/17 13:56:29;;;;;;;0.30;0.30;;;;;;;7.42;73.07;99270.88;5762368;23;20028;31
2021/10/17 13:58:54;;;;;;;0.38;0.38;;;;;;;7.28;73.53;99267.72;5010659;24;20083;-76
2021/10/17 14:01:20;;;;;;;0.40;0.40;;;;;;;7.16;73.88;99270.53;5058877;24;20026;-75
2021/10/17 14:06:44;;;;;;;0.40;0.40;;;;;;;7.19;74.22;99275.66;5571263;23;20828;-78
2021/10/17 14:09:10;;;;;;;0.30;0.30;;;;;;;7.21;74.05;99273.69;5033806;24;20098;-74
2021/10/17 14:11:36;;;;;;;0.30;0.30;;;;;;;7.16;74.23;99269.69;4851704;29;20058;-77
2021/10/17 14:14:03;;;;;;;0.30;0.30;;;;;;;7.13;74.75;99273.53;4934076;24;20045;-77
2021/10/17 14:16:29;;;;;;;0.30;0.30;;;;;;;7.06;74.61;99271.50;4819233;29;20128;-76
2021/10/17 14:18:55;;;;;;;0.30;0.30;;;;;;;7.00;74.93;99272.94;4850192;29;20044;-75
2021/10/17 14:21:21;;;;;;;0.40;0.40;;;;;;;6.99;75.67;99276.63;4844298;29;20061;-76
2021/10/17 14:23:46;;;;;;;0.38;0.38;;;;;;;6.87;75.67;99269.63;4842532;29;20065;-76
2021/10/17 14:26:13;;;;;;;0.32;0.32;;;;;;;6.84;75.86;99269.91;4849190;29;20044;-79
2021/10/17 14:28:42;;;;;;;0.40;0.40;;;;;;;6.79;76.07;99259.56;4887032;24;20186;-76
2021/10/17 14:31:08;;;;;;;0.40;0.40;;;;;;;6.74;76.77;99253.78;4812121;29;20229;-76
2021/10/17 14:33:34;;;;;;;0.40;0.40;;;;;;;6.73;76.76;99269.03;5029448;24;20058;-77
2021/10/17 14:36:01;;;;;;;0.30;0.30;;;;;;;6.74;77.17;99267.22;4849598;29;20043;-75
2021/10/17 14:38:28;;;;;;;0.30;0.30;;;;;;;6.75;76.91;99266.22;4853677;29;20045;-80
2021/10/17 14:40:56;;;;;;;0.30;0.30;;;;;;;6.78;77.01;99276.69;4848955;29;20062;-77
2021/10/17 14:43:22;;;;;;;0.30;0.30;;;;;;;6.79;76.81;99273.00;4849637;29;20037;-75
2021/10/17 14:45:48;;;;;;;0.40;0.40;;;;;;;6.88;76.90;99284.78;4819606;29;20043;-77
2021/10/17 14:48:15;;;;;;;0.30;0.30;;;;;;;6.95;76.50;99275.19;4838539;29;20042;-76
2021/10/17 14:50:42;;;;;;;0.30;0.30;;;;;;;7.00;76.39;99281.84;4825353;29;20050;-80
2021/10/17 14:53:09;;;;;;;0.30;0.30;;;;;;;6.97;76.35;99282.09;4852924;29;20050;-74
2021/10/17 14:55:37;;;;;;;0.30;0.30;;;;;;;6.99;76.38;99274.78;4823342;29;20062;-76
2021/10/17 14:58:04;;;;;;;0.32;0.32;;;;;;;7.01;76.10;99283.53;4828531;29;20065;-79
2021/10/17 15:00:30;;;;;;;0.30;0.30;;;;;;;7.06;75.91;99290.31;4835757;29;20058;-78
2021/10/17 15:02:56;;;;;;;0.30;0.30;;;;;;;7.06;76.26;99290.31;4835675;29;20125;-77
2021/10/17 15:05:21;;;;;;;0.30;0.30;;;;;;;7.10;76.24;99289.94;4811564;29;20037;-78
2021/10/17 15:07:47;;;;;;;0.30;0.30;;;;;;;7.09;75.90;99282.00;4853441;29;20115;-79
2021/10/17 15:10:14;;;;;;;0.30;0.30;;;;;;;7.09;75.80;99280.16;4842106;29;20126;-77
2021/10/17 15:12:40;;;;;;;0.30;0.30;;;;;;;7.09;75.98;99284.69;4839029;29;20045;-75
2021/10/17 15:19:03;;;;;;;0.30;0.30;;;;;;;7.13;75.88;99275.34;4944756;23;20106;31
2021/10/17 15:21:30;;;;;;;0.30;0.30;;;;;;;7.06;76.14;99279.56;4921405;24;20058;-74
2021/10/17 15:23:56;;;;;;;0.30;0.30;;;;;;;7.04;76.16;99286.94;4844645;29;20067;-77
2021/10/17 15:26:21;;;;;;;0.40;0.40;;;;;;;6.97;76.60;99282.09;5018999;24;20062;-77
2021/10/17 15:28:47;;;;;;;0.40;0.40;;;;;;;6.93;76.64;99286.06;4945340;24;20062;-78
2021/10/17 15:31:14;;;;;;;0.30;0.30;;;;;;;6.85;77.19;99277.00;4800571;29;20578;-76
2021/10/17 15:33:40;;;;;;;0.30;0.30;;;;;;;6.89;77.11;99284.63;4801015;29;20149;-76
2021/10/17 15:36:06;;;;;;;0.30;0.30;;;;;;;6.88;77.14;99282.09;4830122;29;20066;-80
2021/10/17 15:38:31;;;;;;;0.30;0.30;;;;;;;6.85;77.43;99282.38;4802258;29;20126;-76
2021/10/17 15:40:57;;;;;;;0.30;0.30;;;;;;;6.91;77.61;99290.75;4829827;29;20039;-77
2021/10/17 15:43:23;;;;;;;0.30;0.30;;;;;;;6.91;77.52;99290.75;4815578;29;20069;-75
2021/10/17 15:45:49;;;;;;;0.30;0.30;;;;;;;6.96;77.21;99296.53;4920598;24;20110;-73
2021/10/17 15:48:15;;;;;;;0.30;0.30;;;;;;;6.99;77.01;99288.22;4784784;30;20059;-76
2021/10/17 15:50:41;;;;;;;0.30;0.30;;;;;;;6.97;76.91;99287.47;4795964;29;20115;-75
2021/10/17 15:53:07;;;;;;;0.40;0.40;;;;;;;7.04;77.07;99295.00;4975598;24;20052;-78
2021/10/17 15:55:32;;;;;;;0.40;0.40;;;;;;;7.06;76.84;99295.69;4834099;29;20117;-77
2021/10/17 15:57:58;;;;;;;0.38;0.38;;;;;;;7.08;76.82;99293.75;4828426;29;20042;-78
2021/10/17 16:00:26;;;;;;;0.30;0.30;;;;;;;7.09;76.62;99298.13;4864400;29;20520;-79
2021/10/17 16:03:17;;;;;;;0.30;0.30;;;;;;;7.11;76.81;99299.69;4838479;23;20042;31
2021/10/17 16:05:43;;;;;;;0.30;0.30;;;;;;;7.07;76.76;99294.75;4858116;24;20099;-76
2021/10/17 16:08:08;;;;;;;0.30;0.30;;;;;;;7.08;76.86;99293.75;4845942;29;20038;-75
2021/10/17 16:10:45;;;;;;;0.40;0.40;;;;;;;7.09;76.57;99290.06;5153411;23;20036;31
2021/10/17 16:13:11;;;;;;;0.30;0.30;;;;;;;7.11;76.86;99304.22;4865232;29;20058;-78
2021/10/17 16:15:38;;;;;;;0.30;0.30;;;;;;;7.11;77.04;99305.06;5185412;24;20036;-69
2021/10/17 16:18:03;;;;;;;0.40;0.40;;;;;;;7.10;77.17;99302.53;4818898;29;20084;-78
2021/10/17 16:20:36;;;;;;;0.30;0.30;;;;;;;7.11;76.71;99293.47;4962340;23;20085;31
2021/10/17 16:23:01;;;;;;;0.30;0.30;;;;;;;7.18;76.51;99300.00;5399314;23;20053;-77
2021/10/17 16:25:30;;;;;;;0.40;0.40;;;;;;;7.25;76.47;99298.44;4889955;24;20091;-75
2021/10/17 16:27:56;;;;;;;0.40;0.40;;;;;;;7.27;76.01;99304.53;5198671;23;20030;-78
2021/10/17 16:30:21;;;;;;;0.40;0.40;;;;;;;7.29;76.19;99302.56;4866806;24;20070;-76
2021/10/17 16:32:50;;;;;;;0.40;0.40;;;;;;;7.33;75.96;99298.59;4801851;29;20054;-75
2021/10/17 16:35:16;;;;;;;0.40;0.40;;;;;;;7.36;75.95;99301.03;4812485;29;20070;-72
2021/10/17 16:37:42;;;;;;;0.40;0.40;;;;;;;7.38;76.02;99296.34;4804862;29;20123;-79
2021/10/17 16:40:09;;;;;;;0.30;0.30;;;;;;;7.35;76.23;99296.63;4814459;24;20066;-76
2021/10/17 16:42:35;;;;;;;0.40;0.40;;;;;;;7.32;76.04;99291.53;4805143;29;20578;-77
2021/10/17 16:45:01;;;;;;;0.30;0.30;;;;;;;7.36;76.18;99292.09;4786220;29;20067;-78
2021/10/17 16:47:28;;;;;;;0.40;0.40;;;;;;;7.27;76.38;99293.78;4800930;29;20059;-76
2021/10/17 16:49:53;;;;;;;0.30;0.30;;;;;;;7.27;76.24;99293.78;4828866;24;20070;-78
2021/10/17 16:52:20;;;;;;;0.40;0.40;;;;;;;7.21;76.29;99294.34;4817511;29;20061;-74
2021/10/17 16:54:46;;;;;;;0.30;0.30;;;;;;;7.25;76.63;99293.06;4775962;29;20109;-78
2021/10/17 16:57:12;;;;;;;0.40;0.40;;;;;;;7.21;76.70;99295.19;4779402;29;20059;-74
2021/10/17 16:59:44;;;;;;;0.30;0.30;;;;;;;7.16;76.60;99291.22;4825856;24;20165;-69
2021/10/17 17:02:10;;;;;;;0.30;0.30;;;;;;;7.12;76.93;99293.31;4785045;29;20377;-79
2021/10/17 17:04:36;;;;;;;0.30;0.30;;;;;;;7.13;76.91;99299.53;4813812;29;20034;-77
2021/10/17 17:07:01;;;;;;;0.30;0.30;;;;;;;7.11;77.46;99293.47;4805335;29;20046;-75
2021/10/17 17:09:28;;;;;;;0.30;0.30;;;;;;;7.12;77.35;99289.78;4949330;24;20055;-80
2021/10/17 17:11:54;;;;;;;0.30;0.30;;;;;;;7.11;77.27;99282.72;4832365;29;20114;-79
2021/10/17 17:14:21;;;;;;;0.30;0.30;;;;;;;7.06;77.25;99277.75;4776422;29;20705;-78
2021/10/17 17:16:47;;;;;;;0.40;0.40;;;;;;;7.08;77.39;99288.38;4794213;29;20586;-78
2021/10/17 17:19:12;;;;;;;0.30;0.30;;;;;;;7.01;77.55;99283.53;4817220;29;20079;-77
2021/10/17 17:21:38;;;;;;;0.30;0.30;;;;;;;6.97;77.88;99282.09;4784124;29;20050;-78
2021/10/17 17:24:06;;;;;;;0.30;0.30;;;;;;;6.91;78.35;99281.81;4805959;29;20168;-79
2021/10/17 17:26:32;;;;;;;0.30;0.30;;;;;;;6.87;78.45;99278.53;4765050;29;20213;-78
2021/10/17 17:28:58;;;;;;;0.40;0.40;;;;;;;6.82;78.63;99279.94;4810355;29;20078;-79
2021/10/17 17:31:23;;;;;;;0.40;0.40;;;;;;;6.84;78.23;99278.84;4804279;29;20047;-78
2021/10/17 17:33:49;;;;;;;0.30;0.30;;;;;;;6.81;78.44;99281.78;4783604;29;20063;-78
2021/10/17 17:36:16;;;;;;;0.30;0.30;;;;;;;6.80;78.46;99290.84;4776541;29;20489;-78
2021/10/17 17:38:46;;;;;;;0.30;0.30;;;;;;;6.72;78.94;99279.91;4796216;29;20507;-78
2021/10/17 17:41:13;;;;;;;0.30;0.30;;;;;;;6.67;79.04;99283.00;4767414;29;20468;-78
2021/10/17 17:43:39;;;;;;;0.40;0.40;;;;;;;6.67;79.12;99290.22;4805464;29;20054;-77
2021/10/17 17:46:05;;;;;;;0.30;0.30;;;;;;;6.68;79.24;99281.16;4795158;29;20046;-77
2021/10/17 17:48:31;;;;;;;0.40;0.40;;;;;;;6.70;79.15;99280.06;4780268;29;20405;-77
2021/10/17 17:50:56;;;;;;;0.30;0.30;;;;;;;6.77;78.64;99283.06;4772237;29;20150;-78
2021/10/17 17:53:22;;;;;;;0.30;0.30;;;;;;;6.82;78.57;99280.78;4784263;29;20055;-78
2021/10/17 17:55:48;;;;;;;0.40;0.40;;;;;;;6.80;78.61;99280.09;4798180;29;20065;-77
2021/10/17 17:58:14;;;;;;;0.30;0.30;;;;;;;6.78;79.08;99276.69;4780938;29;20049;-77
2021/10/17 18:00:40;;;;;;;0.40;0.40;;;;;;;6.73;79.36;99268.19;4794653;29;20082;-75
2021/10/17 18:03:06;;;;;;;0.40;0.40;;;;;;;6.66;79.31;99267.03;4783421;29;20062;-78
2021/10/17 18:05:33;;;;;;;0.40;0.40;;;;;;;6.58;79.90;99264.16;4803982;29;20496;-78
2021/10/17 18:07:58;;;;;;;0.40;0.40;;;;;;;6.53;80.18;99262.72;4784675;29;20060;-77
2021/10/17 18:10:24;;;;;;;0.40;0.40;;;;;;;6.57;80.28;99262.47;4797229;29;20058;-78
2021/10/17 18:12:50;;;;;;;0.40;0.40;;;;;;;6.56;80.38;99263.47;4773083;29;20175;-78
2021/10/17 18:15:17;;;;;;;0.40;0.40;;;;;;;6.51;80.95;99263.88;4779726;29;20062;-78
2021/10/17 18:17:44;;;;;;;0.40;0.40;;;;;;;6.43;80.90;99259.16;4781421;29;20544;-78
2021/10/17 18:20:10;;;;;;;0.40;0.40;;;;;;;6.41;80.96;99261.13;4803619;29;20050;-78
2021/10/17 18:22:36;;;;;;;0.40;0.40;;;;;;;6.34;81.50;99257.28;4783211;29;20518;-77
2021/10/17 18:25:02;;;;;;;0.40;0.40;;;;;;;6.28;81.78;99247.91;4801499;29;20086;-78
2021/10/17 18:27:28;;;;;;;0.40;0.40;;;;;;;6.30;81.65;99260.38;4790843;29;20055;-78
2021/10/17 18:29:54;;;;;;;0.40;0.40;;;;;;;6.29;81.75;99256.84;4783927;29;20054;-78
2021/10/17 18:32:21;;;;;;;0.40;0.40;;;;;;;6.32;81.60;99258.41;4818981;29;20058;-77
2021/10/17 18:34:46;;;;;;;0.40;0.40;;;;;;;6.35;81.66;99261.66;4804833;29;20059;-78
2021/10/17 18:37:12;;;;;;;0.40;0.40;;;;;;;6.41;81.53;99257.59;4802246;29;20089;-79
2021/10/17 18:39:38;;;;;;;0.40;0.40;;;;;;;6.46;81.04;99258.03;4768687;29;20058;-78
2021/10/17 18:42:04;;;;;;;0.40;0.40;;;;;;;6.50;81.06;99252.25;4774980;29;20511;-79
2021/10/17 18:44:29;;;;;;;0.40;0.40;;;;;;;6.57;80.93;99251.72;4792404;29;20093;-78
2021/10/17 18:46:55;;;;;;;0.40;0.40;;;;;;;6.61;81.12;99248.63;4813704;29;20117;-79
2021/10/17 18:49:21;;;;;;;0.40;0.40;;;;;;;6.63;80.55;99256.56;4778842;29;20055;-78
2021/10/17 18:51:47;;;;;;;0.40;0.40;;;;;;;6.64;80.79;99253.72;4787651;29;20385;-78
2021/10/17 18:54:14;;;;;;;0.40;0.40;;;;;;;6.66;80.55;99250.94;4805240;29;20061;-78
2021/10/17 18:56:40;;;;;;;0.40;0.40;;;;;;;6.70;80.75;99257.72;4789363;29;20085;-78
2021/10/17 18:59:06;;;;;;;0.40;0.40;;;;;;;6.71;80.34;99259.41;4795010;29;20053;-79
2021/10/17 19:01:32;;;;;;;0.30;0.30;;;;;;;6.70;80.35;99252.34;4770639;29;20503;-79
2021/10/17 19:03:58;;;;;;;0.40;0.40;;;;;;;6.67;80.85;99241.88;4762778;29;20059;-77
2021/10/17 19:06:24;;;;;;;0.40;0.40;;;;;;;6.68;80.20;99252.47;4805063;29;20061;-78
2021/10/17 19:08:50;;;;;;;0.40;0.40;;;;;;;6.65;80.59;99243.84;4782518;29;20050;-79
2021/10/17 19:11:16;;;;;;;0.30;0.30;;;;;;;6.66;80.79;99242.88;4756506;29;20059;-78
2021/10/17 19:13:42;;;;;;;0.40;0.40;;;;;;;6.64;80.71;99236.78;4786888;29;20150;-78
2021/10/17 19:16:08;;;;;;;0.40;0.40;;;;;;;6.69;80.57;99240.75;4798356;29;20097;-79
2021/10/17 19:18:34;;;;;;;0.40;0.40;;;;;;;6.72;80.55;99245.84;4819739;29;20617;-77
2021/10/17 19:21:00;;;;;;;0.30;0.30;;;;;;;6.73;80.50;99242.19;4816251;29;20058;-77
2021/10/17 19:23:27;;;;;;;0.40;0.40;;;;;;;6.69;80.30;99234.50;4801371;29;20073;-78
2021/10/17 19:25:55;;;;;;;0.40;0.40;;;;;;;6.74;80.37;99243.03;4803141;29;20066;-79
2021/10/17 19:28:20;;;;;;;0.40;0.40;;;;;;;6.72;80.69;99239.63;4788916;29;20055;-78
2021/10/17 19:30:46;;;;;;;0.40;0.40;;;;;;;6.74;79.86;99243.03;4788378;29;20059;-77
2021/10/17 19:33:12;;;;;;;0.40;0.40;;;;;;;6.80;79.72;99239.81;4770577;29;20381;-78